Time;durP1;ratioP1;P1;durP2;ratioP2;P2;SDS_P1;SDS_P2;PMS_P1;PMS_P2;Temp;Humidity;BMP_temperature;BMP_pressure;BME280_temperature;BME280_humidity;BME280_pressure;Samples;Min_cycle;Max_cycle;Signal;HPM_P1;HPM_P2
2023/02/28 00:02:18;;;;;;;7.20;4.43;;;4.40;99.90;;;;;;4976799;28;20201;-80
2023/02/28 00:04:44;;;;;;;8.03;4.57;;;4.30;99.90;;;;;;4975139;28;20188;-79
2023/02/28 00:07:09;;;;;;;5.23;3.90;;;4.10;99.90;;;;;;4974564;28;20705;-79
2023/02/28 00:09:35;;;;;;;4.50;3.97;;;4.20;99.90;;;;;;4960395;28;20260;-79
2023/02/28 00:12:09;;;;;;;4.60;3.90;;;4.20;99.90;;;;;;4982156;28;20187;-79
2023/02/28 00:14:35;;;;;;;4.90;4.17;;;4.10;99.90;;;;;;4984091;28;20710;-77
2023/02/28 00:17:01;;;;;;;12.10;5.77;;;4.00;99.90;;;;;;4985414;28;20530;-77
2023/02/28 00:19:26;;;;;;;9.57;4.17;;;4.00;99.90;;;;;;4986944;28;20445;-77
2023/02/28 00:21:52;;;;;;;9.53;4.40;;;3.90;99.90;;;;;;4988921;28;20182;-77
2023/02/28 00:24:17;;;;;;;5.70;4.80;;;3.90;99.90;;;;;;4990606;28;20188;-77
2023/02/28 00:26:43;;;;;;;13.07;4.43;;;3.70;99.90;;;;;;4992321;28;20278;-77
2023/02/28 00:29:09;;;;;;;4.90;4.40;;;3.80;99.90;;;;;;4990223;28;20225;-80
2023/02/28 00:31:34;;;;;;;5.17;3.97;;;3.80;99.90;;;;;;4978404;28;20318;-80
2023/02/28 00:34:00;;;;;;;6.33;4.63;;;3.80;99.90;;;;;;4977597;28;21042;-80
2023/02/28 00:36:26;;;;;;;6.50;4.17;;;3.80;99.90;;;;;;4977398;28;20331;-80
2023/02/28 00:38:51;;;;;;;7.70;4.40;;;4.00;99.90;;;;;;4977651;28;20197;-80
2023/02/28 00:41:17;;;;;;;5.23;4.10;;;4.00;99.90;;;;;;4977413;28;20679;-77
2023/02/28 00:43:42;;;;;;;8.00;3.90;;;3.90;99.90;;;;;;4977525;28;20676;-77
2023/02/28 00:46:08;;;;;;;5.73;4.77;;;3.90;99.90;;;;;;4977168;28;20657;-80
2023/02/28 00:48:34;;;;;;;5.73;4.87;;;3.70;99.90;;;;;;4977546;28;20190;-80
2023/02/28 00:51:00;;;;;;;8.10;4.10;;;3.60;99.90;;;;;;4977507;28;20276;-81
2023/02/28 00:53:26;;;;;;;8.60;4.70;;;3.60;99.90;;;;;;4977592;28;20470;-81
2023/02/28 00:55:51;;;;;;;5.90;3.97;;;3.50;99.90;;;;;;4977879;28;20998;-81
2023/02/28 00:58:17;;;;;;;8.30;3.53;;;3.50;99.90;;;;;;4978132;28;20231;-82
2023/02/28 01:00:42;;;;;;;4.83;4.07;;;3.50;99.90;;;;;;4978249;28;20201;-76
2023/02/28 01:03:08;;;;;;;4.70;3.43;;;3.50;99.90;;;;;;4977068;28;20246;-76
2023/02/28 01:05:33;;;;;;;4.20;3.60;;;3.50;99.90;;;;;;4977075;28;20235;-75
2023/02/28 01:07:59;;;;;;;12.13;4.07;;;3.50;99.90;;;;;;4977084;28;20190;-77
2023/02/28 01:10:25;;;;;;;4.53;3.43;;;3.40;99.90;;;;;;4975971;28;20185;-76
2023/02/28 01:12:51;;;;;;;6.30;4.33;;;3.40;99.90;;;;;;4976999;28;20348;-76
2023/02/28 01:15:16;;;;;;;6.37;3.90;;;3.40;99.90;;;;;;4976974;28;20508;-76
2023/02/28 01:17:42;;;;;;;5.27;3.93;;;3.40;99.90;;;;;;4985560;28;20596;-76
2023/02/28 01:20:09;;;;;;;5.33;4.50;;;3.40;99.90;;;;;;4976612;28;20772;-76
2023/02/28 01:22:35;;;;;;;4.40;3.77;;;3.40;99.90;;;;;;4975962;28;20656;-76
2023/02/28 01:25:00;;;;;;;6.43;4.13;;;3.40;99.90;;;;;;4976637;28;20429;-77
2023/02/28 01:27:26;;;;;;;5.50;4.10;;;3.40;99.90;;;;;;4976710;28;20278;-76
2023/02/28 01:29:52;;;;;;;5.37;3.93;;;3.40;99.90;;;;;;4976637;28;20193;-76
2023/02/28 01:32:17;;;;;;;4.57;4.13;;;3.30;99.90;;;;;;4990020;28;20837;-76
2023/02/28 01:34:43;;;;;;;5.70;4.13;;;3.30;99.90;;;;;;4991104;28;20750;-77
2023/02/28 01:37:08;;;;;;;5.83;3.97;;;3.30;99.90;;;;;;4989636;28;20195;-76
2023/02/28 01:39:34;;;;;;;11.83;4.90;;;3.30;99.90;;;;;;4986014;28;20200;-75
2023/02/28 01:41:59;;;;;;;5.93;4.17;;;3.30;99.90;;;;;;4986076;28;20266;-75
2023/02/28 01:45:02;;;;;;;4.97;4.30;;;3.30;99.90;;;;;;4987915;28;20709;-76
2023/02/28 01:47:34;;;;;;;5.43;3.83;;;3.20;99.90;;;;;;4989730;28;20176;-75
2023/02/28 01:50:01;;;;;;;8.03;4.23;;;3.20;99.90;;;;;;4977842;28;20428;-76
2023/02/28 01:52:28;;;;;;;7.97;4.60;;;3.10;99.90;;;;;;4978262;28;20488;-75
2023/02/28 01:54:59;;;;;;;5.00;4.50;;;3.10;99.90;;;;;;4976685;28;20528;-80
2023/02/28 01:57:37;;;;;;;5.50;3.97;;;3.00;99.90;;;;;;4976755;28;20444;-80
2023/02/28 02:00:16;;;;;;;7.07;4.07;;;3.00;99.90;;;;;;4976622;28;20443;-83
2023/02/28 02:02:44;;;;;;;10.90;4.63;;;3.00;99.90;;;;;;4980284;28;20445;-83
2023/02/28 02:05:17;;;;;;;8.03;4.57;;;3.00;99.90;;;;;;4987509;28;20542;-84
2023/02/28 02:07:46;;;;;;;4.27;3.57;;;3.00;99.90;;;;;;4982527;28;20536;-83
2023/02/28 02:10:40;;;;;;;11.17;3.93;;;2.90;99.90;;;;;;4986108;28;20539;-84
2023/02/28 02:13:22;;;;;;;5.30;3.73;;;2.90;99.90;;;;;;4979372;28;20477;-85
2023/02/28 02:16:00;;;;;;;4.30;3.20;;;2.90;99.90;;;;;;4980988;28;20515;-84
2023/02/28 02:18:42;;;;;;;8.63;4.07;;;3.00;99.90;;;;;;4991630;28;20770;-84
2023/02/28 02:21:34;;;;;;;5.17;4.10;;;3.10;99.90;;;;;;4987758;28;20452;-84
2023/02/28 02:24:48;;;;;;;4.53;3.60;;;3.00;99.90;;;;;;4976726;28;20529;-83
2023/02/28 02:27:25;;;;;;;11.53;3.70;;;3.00;99.90;;;;;;4984704;28;21022;-83
2023/02/28 02:30:27;;;;;;;5.57;3.50;;;2.90;99.90;;;;;;4990268;28;20497;-83
2023/02/28 02:33:16;;;;;;;7.17;3.80;;;3.00;99.90;;;;;;4950099;28;20837;-82
2023/02/28 02:35:54;;;;;;;4.37;3.43;;;3.10;99.90;;;;;;4956035;29;20519;-74
2023/02/28 02:38:22;;;;;;;6.60;3.77;;;3.10;99.90;;;;;;4955836;29;20444;-74
2023/02/28 02:41:03;;;;;;;4.33;3.33;;;3.10;99.90;;;;;;4955777;29;20480;-76
2023/02/28 02:44:11;;;;;;;5.70;3.87;;;3.10;99.90;;;;;;4955981;29;20447;-76
2023/02/28 02:46:45;;;;;;;5.07;3.50;;;3.00;99.90;;;;;;4952807;29;20942;-75
2023/02/28 02:49:18;;;;;;;4.03;3.40;;;2.90;99.90;;;;;;4955897;29;20441;-75
2023/02/28 02:51:46;;;;;;;4.10;3.17;;;2.80;99.90;;;;;;4955666;29;20442;-76
2023/02/28 02:54:22;;;;;;;7.37;4.03;;;2.80;99.90;;;;;;4955562;29;20522;-76
2023/02/28 02:56:50;;;;;;;6.03;3.73;;;2.90;99.90;;;;;;4955574;29;20511;-83
2023/02/28 02:59:21;;;;;;;4.37;3.30;;;2.90;99.90;;;;;;4955843;29;20452;-83
2023/02/28 03:01:51;;;;;;;6.30;3.40;;;3.00;99.90;;;;;;4955544;29;20440;-81
2023/02/28 03:04:20;;;;;;;4.80;3.00;;;3.00;99.90;;;;;;4955517;29;20447;-82
2023/02/28 03:06:46;;;;;;;4.57;3.13;;;3.10;99.90;;;;;;4955601;29;20846;-80
2023/02/28 03:09:11;;;;;;;8.17;3.43;;;3.00;99.90;;;;;;4970075;28;20540;-81
2023/02/28 03:11:39;;;;;;;7.83;3.70;;;3.10;99.90;;;;;;4955437;29;20259;-82
2023/02/28 03:14:22;;;;;;;6.97;3.83;;;3.00;99.90;;;;;;4970126;28;20252;-83
2023/02/28 03:17:02;;;;;;;4.50;3.60;;;3.00;99.90;;;;;;4944204;29;20445;-78
2023/02/28 03:19:43;;;;;;;6.87;4.03;;;3.00;99.90;;;;;;4968965;28;20813;-78
2023/02/28 03:22:20;;;;;;;3.37;3.00;;;3.00;99.90;;;;;;4967334;28;20457;-77
2023/02/28 03:25:13;;;;;;;5.30;3.63;;;2.90;99.90;;;;;;4955021;29;20521;-77
2023/02/28 03:27:46;;;;;;;3.30;3.00;;;3.00;99.90;;;;;;4954957;29;20449;-78
2023/02/28 03:30:32;;;;;;;5.90;3.20;;;2.90;99.90;;;;;;4955089;29;20491;-77
2023/02/28 03:33:28;;;;;;;4.60;3.30;;;2.90;99.90;;;;;;4953193;29;20591;-78
2023/02/28 03:35:55;;;;;;;5.37;3.17;;;3.10;99.90;;;;;;4952308;29;20453;-78
2023/02/28 03:38:38;;;;;;;5.70;3.43;;;3.00;99.90;;;;;;4955221;29;20777;-85
2023/02/28 05:31:28;;;;;;;5.43;4.30;;;2.50;99.90;;;;;;5604110;23;20518;-77
2023/02/28 05:33:54;;;;;;;10.23;4.40;;;2.60;99.90;;;;;;5055706;28;20481;-77
2023/02/28 05:36:20;;;;;;;5.87;4.13;;;2.50;99.90;;;;;;5055979;28;20183;-78
2023/02/28 05:38:47;;;;;;;8.57;4.20;;;2.40;99.90;;;;;;5058436;28;20197;-78
2023/02/28 05:41:14;;;;;;;6.43;4.23;;;2.40;99.90;;;;;;5060523;28;20434;-73
2023/02/28 05:43:40;;;;;;;6.00;4.87;;;2.40;99.90;;;;;;5061247;28;20486;-73
2023/02/28 05:46:06;;;;;;;7.73;4.40;;;2.30;99.90;;;;;;5062440;28;20472;-75
2023/02/28 05:48:34;;;;;;;12.03;4.77;;;2.40;99.90;;;;;;5060033;28;20235;-74
2023/02/28 05:50:59;;;;;;;7.10;3.47;;;2.40;99.90;;;;;;5051674;28;20496;-74
2023/02/28 05:53:26;;;;;;;4.83;4.20;;;2.40;99.90;;;;;;5054763;28;20908;-73
2023/02/28 05:55:51;;;;;;;3.90;3.30;;;2.40;99.90;;;;;;5053989;28;20197;-73
2023/02/28 05:58:17;;;;;;;7.43;3.40;;;2.40;99.90;;;;;;5054412;28;20454;-75
2023/02/28 06:00:42;;;;;;;5.37;3.27;;;2.40;99.90;;;;;;5054939;28;20199;-73
2023/02/28 06:03:08;;;;;;;5.23;3.20;;;2.30;99.90;;;;;;5054928;28;20194;-74
2023/02/28 06:05:33;;;;;;;7.20;4.20;;;2.30;99.90;;;;;;5056308;28;20229;-74
2023/02/28 06:07:59;;;;;;;5.23;3.93;;;2.20;99.90;;;;;;5063349;28;20526;-73
2023/02/28 06:10:25;;;;;;;6.70;3.20;;;2.10;99.90;;;;;;5067635;28;20189;-74
2023/02/28 06:12:50;;;;;;;7.03;4.00;;;2.10;99.90;;;;;;5072465;28;20211;-73
2023/02/28 06:15:16;;;;;;;10.93;4.03;;;2.00;99.90;;;;;;5071489;28;20554;-73
2023/02/28 06:17:43;;;;;;;5.53;3.43;;;2.00;99.90;;;;;;5070540;28;20234;-73
2023/02/28 06:20:12;;;;;;;5.07;3.50;;;2.00;99.90;;;;;;5069433;28;20447;-73
2023/02/28 06:22:38;;;;;;;8.60;4.00;;;2.10;99.90;;;;;;5068412;28;20466;-74
2023/02/28 06:25:05;;;;;;;4.03;3.67;;;2.00;99.90;;;;;;5059667;28;20446;-73
2023/02/28 06:27:32;;;;;;;6.27;4.60;;;2.00;99.90;;;;;;5058141;28;20179;-73
2023/02/28 06:29:57;;;;;;;4.50;3.63;;;2.00;99.90;;;;;;5059036;28;20436;-73
2023/02/28 06:32:23;;;;;;;4.80;3.63;;;2.00;99.90;;;;;;5059361;28;20928;-73
2023/02/28 06:34:50;;;;;;;6.60;4.00;;;2.00;99.90;;;;;;5056214;28;20659;-73
2023/02/28 06:37:16;;;;;;;8.53;3.80;;;2.10;99.90;;;;;;5059721;28;20194;-73
2023/02/28 06:39:41;;;;;;;5.60;4.00;;;2.30;99.90;;;;;;5065842;28;20477;-73
2023/02/28 06:42:07;;;;;;;4.77;3.50;;;2.40;99.90;;;;;;5062377;28;20460;-74
2023/02/28 06:44:34;;;;;;;4.50;3.43;;;2.30;99.90;;;;;;5060617;28;20181;-73
2023/02/28 06:47:03;;;;;;;7.00;3.27;;;2.20;99.90;;;;;;5064874;28;20293;-73
2023/02/28 06:49:29;;;;;;;5.53;3.53;;;2.20;99.90;;;;;;5060462;28;20985;-73
2023/02/28 06:51:54;;;;;;;19.63;4.30;;;2.20;99.90;;;;;;5054336;28;20434;-73
2023/02/28 06:54:20;;;;;;;11.87;4.37;;;2.20;99.90;;;;;;5052130;28;20471;-73
2023/02/28 06:56:46;;;;;;;7.57;4.47;;;2.20;99.90;;;;;;5052006;28;20182;-73
2023/02/28 06:59:12;;;;;;;4.40;3.83;;;2.30;99.90;;;;;;5065327;28;20176;-73
2023/02/28 07:01:38;;;;;;;3.43;3.00;;;2.50;99.90;;;;;;5056143;28;20448;-73
2023/02/28 07:04:05;;;;;;;4.20;3.80;;;2.50;99.90;;;;;;5059145;28;20197;-73
2023/02/28 07:06:31;;;;;;;3.90;3.47;;;2.50;99.90;;;;;;5060602;28;20432;-73
2023/02/28 07:08:57;;;;;;;5.03;4.07;;;2.50;99.90;;;;;;5061060;28;20449;-73
2023/02/28 07:11:27;;;;;;;5.90;3.67;;;2.50;99.90;;;;;;5060896;28;20179;-73
2023/02/28 07:13:54;;;;;;;5.60;4.27;;;2.50;99.90;;;;;;5059622;28;20474;-73
2023/02/28 07:16:21;;;;;;;5.33;4.03;;;2.50;99.90;;;;;;5048252;28;20433;-73
2023/02/28 07:18:46;;;;;;;6.40;3.70;;;2.60;99.90;;;;;;5053250;28;20956;-73
2023/02/28 07:21:12;;;;;;;11.23;4.20;;;2.50;99.90;;;;;;5054476;28;20438;-73
2023/02/28 07:23:38;;;;;;;4.90;3.97;;;2.50;99.90;;;;;;5053209;28;20642;-73
2023/02/28 07:26:05;;;;;;;8.80;4.30;;;2.60;99.90;;;;;;5039012;28;20178;-73
2023/02/28 07:28:30;;;;;;;5.00;2.93;;;2.60;99.90;;;;;;5066129;28;20441;-73
2023/02/28 07:30:56;;;;;;;5.80;3.97;;;2.50;99.90;;;;;;5064783;28;20471;-73
2023/02/28 07:33:23;;;;;;;5.93;4.40;;;2.60;99.90;;;;;;5062606;28;20685;-73
2023/02/28 07:35:49;;;;;;;6.03;3.40;;;2.60;99.90;;;;;;5064480;28;20559;-73
2023/02/28 07:38:15;;;;;;;10.57;4.37;;;2.60;99.90;;;;;;5064284;28;20434;-74
2023/02/28 07:40:41;;;;;;;7.37;4.27;;;2.50;99.90;;;;;;5062442;28;20593;-76
2023/02/28 07:43:06;;;;;;;11.70;5.10;;;2.50;99.90;;;;;;5060198;28;20450;-76
2023/02/28 07:45:34;;;;;;;9.00;5.37;;;2.50;99.90;;;;;;5069087;28;20176;-77
2023/02/28 07:48:00;;;;;;;12.80;7.13;;;2.50;99.90;;;;;;5068581;28;20182;-76
2023/02/28 07:50:28;;;;;;;13.00;5.30;;;2.40;99.90;;;;;;5066325;28;20435;-76
2023/02/28 07:52:54;;;;;;;8.60;4.50;;;2.60;99.90;;;;;;5063043;28;20475;-76
2023/02/28 07:55:19;;;;;;;7.67;5.10;;;2.80;99.90;;;;;;5066941;28;20798;-77
2023/02/28 07:57:45;;;;;;;7.27;4.03;;;2.80;99.90;;;;;;5068263;28;20663;-76
2023/02/28 08:00:12;;;;;;;6.37;3.50;;;2.90;99.90;;;;;;5068231;28;20176;-76
2023/02/28 08:02:38;;;;;;;9.70;4.43;;;2.80;99.90;;;;;;5070529;28;20475;-76
2023/02/28 08:05:04;;;;;;;10.43;5.17;;;2.80;99.90;;;;;;5061850;28;20921;-76
2023/02/28 08:07:30;;;;;;;5.93;3.97;;;2.90;99.90;;;;;;5066121;28;20424;-77
2023/02/28 08:09:56;;;;;;;6.53;4.23;;;3.20;99.90;;;;;;5059850;28;20484;-77
2023/02/28 08:12:21;;;;;;;7.33;4.60;;;3.60;99.90;;;;;;5062296;28;20220;-77
2023/02/28 08:14:46;;;;;;;4.57;3.10;;;4.00;99.90;;;;;;5067089;28;20234;-77
2023/02/28 08:17:12;;;;;;;5.20;3.77;;;4.40;99.90;;;;;;5067336;28;20221;-77
2023/02/28 08:19:38;;;;;;;8.23;4.33;;;4.70;99.90;;;;;;5069783;28;20188;-77
2023/02/28 08:22:03;;;;;;;5.90;3.60;;;4.90;99.90;;;;;;5064897;28;20174;-78
2023/02/28 08:24:29;;;;;;;3.90;3.40;;;5.20;99.90;;;;;;5065783;28;20269;-77
2023/02/28 08:26:55;;;;;;;5.20;2.80;;;5.40;98.40;;;;;;5065754;28;20174;-79
2023/02/28 08:29:21;;;;;;;3.73;3.43;;;5.40;94.30;;;;;;5064596;28;20186;-78
2023/02/28 08:31:46;;;;;;;5.67;3.67;;;5.20;94.90;;;;;;5071787;28;20593;-78
2023/02/28 08:34:14;;;;;;;6.33;4.97;;;5.20;95.60;;;;;;5069351;28;20304;-78
2023/02/28 08:36:41;;;;;;;5.77;3.87;;;5.20;95.30;;;;;;5070303;28;20187;-78
2023/02/28 08:39:07;;;;;;;6.27;3.40;;;5.30;96.70;;;;;;5070330;28;20429;-76
2023/02/28 08:41:33;;;;;;;8.47;4.33;;;5.60;96.40;;;;;;5066344;28;20428;-77
2023/02/28 08:43:59;;;;;;;5.30;4.17;;;5.70;95.50;;;;;;5076633;28;20494;-78
2023/02/28 08:46:24;;;;;;;7.00;4.50;;;5.80;94.80;;;;;;5064147;28;20759;-77
2023/02/28 08:48:54;;;;;;;6.53;3.63;;;6.00;94.70;;;;;;5073866;28;20826;-78
2023/02/28 08:51:26;;;;;;;5.43;3.63;;;6.20;93.20;;;;;;5076139;28;20257;-78
2023/02/28 08:53:53;;;;;;;8.90;3.87;;;6.20;91.10;;;;;;5075219;28;20861;-77
2023/02/28 08:56:20;;;;;;;5.97;3.80;;;6.10;90.40;;;;;;5076891;28;20431;-76
2023/02/28 08:58:47;;;;;;;6.10;4.47;;;6.00;91.30;;;;;;5076048;28;20942;-77
2023/02/28 09:01:15;;;;;;;8.17;4.00;;;6.00;91.40;;;;;;5075387;28;20965;-77
2023/02/28 09:03:42;;;;;;;3.90;3.27;;;6.00;91.60;;;;;;5076920;28;20915;-79
2023/02/28 09:06:09;;;;;;;3.53;2.83;;;6.10;87.40;;;;;;5075970;28;20464;-78
2023/02/28 09:08:35;;;;;;;4.33;3.37;;;6.00;86.60;;;;;;5072410;28;20985;-78
2023/02/28 09:11:01;;;;;;;3.83;3.50;;;5.90;86.50;;;;;;5077294;28;20452;-78
2023/02/28 09:13:27;;;;;;;5.23;2.93;;;5.80;85.50;;;;;;5072725;28;20469;-78
2023/02/28 09:15:53;;;;;;;7.33;2.77;;;5.70;89.20;;;;;;5073272;28;20181;-76
2023/02/28 09:18:20;;;;;;;5.00;3.13;;;5.90;89.80;;;;;;5074197;28;20798;-76
2023/02/28 09:20:45;;;;;;;10.30;3.73;;;6.00;90.50;;;;;;5072777;28;20436;-77
2023/02/28 09:23:12;;;;;;;4.00;3.47;;;6.10;89.60;;;;;;5075555;28;20425;-76
2023/02/28 09:25:44;;;;;;;5.07;3.80;;;6.30;83.80;;;;;;5075912;28;20178;-77
2023/02/28 09:28:09;;;;;;;7.20;3.50;;;6.30;84.40;;;;;;5075031;28;20466;-77
2023/02/28 09:30:35;;;;;;;4.10;2.90;;;6.20;81.40;;;;;;5074651;28;20490;-76
2023/02/28 09:33:00;;;;;;;3.63;3.23;;;6.10;83.40;;;;;;5072009;28;20233;-76
2023/02/28 09:35:26;;;;;;;9.53;3.00;;;6.10;82.90;;;;;;5073011;28;20583;-77
2023/02/28 09:37:52;;;;;;;5.20;3.40;;;6.00;84.80;;;;;;5071583;28;20508;-76
2023/02/28 09:40:20;;;;;;;4.07;2.83;;;5.90;87.10;;;;;;5056536;28;20182;-76
2023/02/28 09:42:49;;;;;;;3.17;2.80;;;6.10;84.90;;;;;;5056102;28;20186;-77
2023/02/28 09:45:29;;;;;;;3.50;2.60;;;6.30;82.90;;;;;;5072837;28;20431;-77
2023/02/28 09:48:12;;;;;;;3.60;3.10;;;6.40;81.10;;;;;;5067810;28;20812;-77
2023/02/28 09:50:56;;;;;;;6.30;2.53;;;6.40;81.90;;;;;;5074093;28;20431;-76
2023/02/28 09:53:34;;;;;;;3.83;2.93;;;6.40;81.30;;;;;;5068662;28;20507;-77
2023/02/28 09:56:08;;;;;;;4.20;3.03;;;6.40;79.60;;;;;;5069553;28;20452;-76
2023/02/28 09:59:03;;;;;;;3.20;2.90;;;6.40;80.20;;;;;;5067700;28;20433;-77
2023/02/28 10:01:45;;;;;;;3.57;3.10;;;6.20;78.30;;;;;;5025520;28;20490;-76
2023/02/28 10:04:26;;;;;;;2.57;2.37;;;6.10;79.30;;;;;;5066946;28;20818;-77
2023/02/28 10:06:52;;;;;;;6.43;4.43;;;5.80;77.70;;;;;;5066132;28;20437;-77
2023/02/28 10:09:30;;;;;;;3.70;2.90;;;5.60;82.10;;;;;;5068504;28;20437;-77
2023/02/28 10:12:01;;;;;;;5.37;3.70;;;5.50;80.50;;;;;;5070880;28;20429;-78
2023/02/28 10:14:29;;;;;;;3.57;2.77;;;5.50;85.40;;;;;;5071236;28;20476;-78
2023/02/28 10:16:56;;;;;;;2.90;2.53;;;5.50;87.30;;;;;;5072537;28;20424;-78
2023/02/28 10:19:44;;;;;;;3.37;2.93;;;5.70;81.50;;;;;;5069115;28;20431;-77
2023/02/28 10:22:12;;;;;;;3.50;2.43;;;5.70;82.60;;;;;;5072738;28;20433;-76
2023/02/28 10:24:40;;;;;;;4.90;2.47;;;5.80;81.00;;;;;;5067890;28;20835;-76
2023/02/28 10:27:17;;;;;;;4.27;2.80;;;5.80;78.40;;;;;;5067161;28;20439;-76
2023/02/28 10:29:49;;;;;;;4.70;2.77;;;5.90;82.70;;;;;;5066460;28;21022;-76
2023/02/28 10:32:17;;;;;;;5.27;2.17;;;6.00;75.20;;;;;;5058766;28;20538;-76
2023/02/28 10:34:43;;;;;;;4.60;2.10;;;6.00;78.60;;;;;;5068754;28;20473;-76
2023/02/28 10:37:11;;;;;;;2.27;2.07;;;6.10;73.50;;;;;;5068395;28;20504;-76
2023/02/28 10:39:41;;;;;;;4.20;2.53;;;6.20;73.50;;;;;;5057330;28;20433;-76
2023/02/28 10:42:20;;;;;;;2.20;2.00;;;6.20;71.30;;;;;;5062799;28;20417;-76
2023/02/28 10:44:46;;;;;;;2.70;2.27;;;6.20;71.00;;;;;;5071655;28;20420;-73
2023/02/28 10:47:19;;;;;;;3.07;2.63;;;6.30;73.50;;;;;;5069726;28;20439;-76
2023/02/28 10:49:49;;;;;;;7.60;2.90;;;6.40;70.80;;;;;;5070237;28;20578;-74
2023/02/28 10:52:37;;;;;;;3.23;2.50;;;6.40;70.00;;;;;;5070622;28;20777;-77
2023/02/28 10:55:22;;;;;;;4.13;2.30;;;6.40;69.90;;;;;;5069070;28;20517;-77
2023/02/28 10:57:48;;;;;;;2.83;2.57;;;6.50;71.50;;;;;;5068063;28;20769;-77
2023/02/28 11:00:21;;;;;;;3.20;2.67;;;6.60;70.20;;;;;;5067196;28;20505;-76
2023/02/28 11:02:47;;;;;;;6.90;2.73;;;6.50;68.60;;;;;;5067984;28;20834;-77
2023/02/28 11:05:35;;;;;;;5.60;2.17;;;6.50;68.60;;;;;;5068392;28;20531;-76
2023/02/28 11:08:12;;;;;;;4.43;2.33;;;6.40;72.40;;;;;;5062755;28;20505;-81
2023/02/28 11:10:38;;;;;;;2.40;2.20;;;6.60;68.30;;;;;;5059917;28;20231;-79
2023/02/28 11:13:04;;;;;;;3.40;3.10;;;6.70;69.40;;;;;;5060676;28;20814;-78
2023/02/28 11:15:33;;;;;;;6.50;2.40;;;6.60;68.00;;;;;;5061493;28;20432;-80
2023/02/28 11:18:18;;;;;;;3.73;2.90;;;6.70;72.10;;;;;;5061053;28;20436;-80
2023/02/28 11:20:49;;;;;;;2.67;2.47;;;6.80;67.00;;;;;;5063564;28;20798;-81
2023/02/28 11:23:16;;;;;;;6.10;2.90;;;6.70;70.40;;;;;;5064034;28;20436;-81
2023/02/28 11:25:51;;;;;;;2.93;2.33;;;6.80;70.70;;;;;;5057441;28;20586;-80
2023/02/28 11:28:36;;;;;;;6.53;2.40;;;7.00;66.40;;;;;;5051928;28;20877;-81
2023/02/28 11:31:11;;;;;;;2.73;2.53;;;6.90;65.70;;;;;;5052397;28;20478;-81
2023/02/28 11:33:51;;;;;;;4.07;2.30;;;6.80;66.10;;;;;;5055247;28;20491;-81
2023/02/28 11:36:24;;;;;;;2.90;2.43;;;6.80;63.90;;;;;;5061147;28;20423;-80
2023/02/28 11:38:50;;;;;;;2.93;2.50;;;6.80;68.00;;;;;;5063462;28;20437;-81
2023/02/28 11:41:47;;;;;;;3.80;2.80;;;6.90;67.30;;;;;;5061317;28;20436;-81
2023/02/28 11:44:23;;;;;;;7.10;3.00;;;6.90;65.00;;;;;;5061911;28;20489;-81
2023/02/28 11:46:56;;;;;;;2.40;1.90;;;6.90;71.60;;;;;;5057702;28;21025;-80
2023/02/28 11:49:38;;;;;;;3.50;2.53;;;7.00;70.00;;;;;;5064847;28;20435;-81
2023/02/28 11:52:35;;;;;;;3.80;2.70;;;7.20;70.30;;;;;;5053801;28;20437;-81
2023/02/28 11:55:13;;;;;;;3.13;2.47;;;7.30;63.60;;;;;;5051882;28;20448;-81
2023/02/28 11:58:18;;;;;;;4.93;3.10;;;7.30;68.20;;;;;;5051311;28;20512;-82
2023/02/28 12:01:03;;;;;;;4.47;3.50;;;7.60;62.50;;;;;;5037713;28;20453;-80
2023/02/28 12:03:43;;;;;;;4.67;3.07;;;7.50;64.30;;;;;;5057306;28;20428;-80
2023/02/28 12:06:24;;;;;;;3.87;3.53;;;7.40;61.70;;;;;;5058482;28;20931;-81
2023/02/28 12:09:09;;;;;;;11.43;2.80;;;7.40;65.90;;;;;;5060995;28;20440;-81
2023/02/28 12:12:17;;;;;;;6.50;2.80;;;7.70;62.90;;;;;;5061901;28;20461;-82
2023/02/28 12:14:54;;;;;;;3.50;2.90;;;7.70;61.70;;;;;;4979662;28;20488;-78
2023/02/28 12:17:31;;;;;;;3.40;3.10;;;7.80;64.60;;;;;;5062254;28;20585;-89
2023/02/28 12:20:09;;;;;;;6.50;3.30;;;7.90;66.50;;;;;;5069531;28;20489;-85
2023/02/28 12:22:43;;;;;;;3.10;2.80;;;8.10;63.50;;;;;;5071045;28;20799;-81
2023/02/28 12:25:29;;;;;;;7.03;3.20;;;8.40;68.00;;;;;;5071489;28;20424;-86
2023/02/28 12:27:55;;;;;;;4.20;3.20;;;8.70;63.00;;;;;;5041641;28;20445;-83
2023/02/28 12:30:33;;;;;;;5.10;2.80;;;9.00;61.00;;;;;;5056519;28;20436;-82
2023/02/28 12:33:14;;;;;;;4.27;3.30;;;9.10;58.30;;;;;;5063417;28;20691;-82
2023/02/28 12:35:57;;;;;;;7.97;3.00;;;9.20;58.90;;;;;;5063738;28;20519;-82
2023/02/28 12:38:31;;;;;;;6.47;4.43;;;9.50;58.70;;;;;;5062343;28;20482;-83
2023/02/28 12:40:59;;;;;;;3.93;3.63;;;9.30;56.70;;;;;;5060070;28;20456;-82
2023/02/28 12:43:32;;;;;;;7.73;3.63;;;9.20;56.90;;;;;;5058270;28;20429;-83
2023/02/28 12:46:10;;;;;;;3.30;2.87;;;8.90;56.90;;;;;;5056479;28;20433;-84
2023/02/28 12:48:45;;;;;;;6.07;3.63;;;8.90;56.80;;;;;;5054610;28;20801;-83
2023/02/28 12:51:14;;;;;;;3.43;2.90;;;8.70;57.30;;;;;;5064982;28;20481;-83
2023/02/28 12:53:52;;;;;;;4.30;3.40;;;8.70;58.00;;;;;;5059733;28;20464;-83
2023/02/28 12:56:39;;;;;;;4.03;3.73;;;8.80;59.40;;;;;;5068745;28;20801;-83
2023/02/28 12:59:27;;;;;;;3.80;3.03;;;8.70;58.40;;;;;;5067108;28;20439;-83
2023/02/28 13:02:30;;;;;;;4.17;3.87;;;8.80;57.60;;;;;;5063154;28;20425;-83
2023/02/28 13:05:06;;;;;;;3.77;3.07;;;8.90;57.10;;;;;;5062156;28;20956;-83
2023/02/28 13:07:49;;;;;;;5.70;3.10;;;8.90;57.60;;;;;;5061903;28;20414;-83
2023/02/28 13:10:16;;;;;;;3.03;2.63;;;8.80;57.50;;;;;;5066735;28;20451;-83
2023/02/28 13:12:50;;;;;;;3.70;3.27;;;8.70;57.60;;;;;;5068348;28;20899;-82
2023/02/28 13:15:27;;;;;;;4.43;4.03;;;8.60;57.60;;;;;;5055369;28;20536;-84
2023/02/28 13:17:56;;;;;;;6.20;4.00;;;8.50;58.20;;;;;;5066204;28;20426;-83
2023/02/28 13:20:31;;;;;;;4.30;3.90;;;8.50;60.00;;;;;;5056774;28;20437;-83
2023/02/28 13:22:57;;;;;;;10.70;3.67;;;8.60;62.30;;;;;;5058347;28;20804;-82
2023/02/28 13:25:23;;;;;;;3.80;3.50;;;8.70;64.20;;;;;;5059829;28;20437;-82
2023/02/28 13:27:56;;;;;;;3.83;3.53;;;8.80;64.30;;;;;;5061568;28;20714;-82
2023/02/28 13:33:33;;;;;;;6.30;3.17;;;8.80;58.40;;;;;;5064121;28;20477;-82
2023/02/28 13:36:30;;;;;;;4.73;4.27;;;8.70;58.60;;;;;;5067592;28;20424;-82
2023/02/28 13:39:01;;;;;;;4.10;3.70;;;8.60;59.00;;;;;;5069761;28;20508;-81
2023/02/28 13:41:36;;;;;;;4.00;3.63;;;8.40;63.70;;;;;;5071417;28;20436;-79
2023/02/28 13:44:04;;;;;;;4.73;3.83;;;8.40;66.10;;;;;;5073414;28;20422;-82
2023/02/28 13:46:31;;;;;;;8.50;3.93;;;8.60;64.30;;;;;;5074431;28;20527;-82
2023/02/28 13:49:16;;;;;;;4.83;3.30;;;8.70;65.10;;;;;;5072727;28;20515;-82
2023/02/28 13:52:16;;;;;;;7.73;3.57;;;8.80;62.40;;;;;;5058506;28;20433;-81
2023/02/28 13:55:00;;;;;;;4.87;4.40;;;8.70;64.00;;;;;;5060382;28;20535;-82
2023/02/28 13:57:54;;;;;;;4.30;3.70;;;8.60;62.80;;;;;;5062977;28;20740;-82
2023/02/28 14:00:56;;;;;;;5.80;4.77;;;8.70;65.00;;;;;;5064818;28;20493;-82
2023/02/28 14:04:06;;;;;;;4.70;3.73;;;8.80;64.60;;;;;;5061790;28;20420;-81
2023/02/28 14:06:52;;;;;;;5.23;4.77;;;8.90;66.50;;;;;;5002099;28;20487;-83
2023/02/28 14:09:38;;;;;;;4.27;3.87;;;9.00;66.10;;;;;;5058529;28;20429;-78
2023/02/28 14:12:41;;;;;;;5.53;4.10;;;9.10;65.30;;;;;;5055132;28;20896;-82
2023/02/28 14:15:35;;;;;;;4.47;3.80;;;9.20;64.10;;;;;;5054306;28;20437;-80
2023/02/28 14:18:03;;;;;;;4.87;3.47;;;9.20;64.10;;;;;;5057075;28;20955;-81
2023/02/28 14:20:32;;;;;;;5.13;3.90;;;9.30;62.30;;;;;;5058129;28;20441;-80
2023/02/28 14:22:57;;;;;;;3.87;3.57;;;9.30;61.50;;;;;;5059744;28;20488;-78
2023/02/28 14:25:31;;;;;;;3.83;3.53;;;9.20;61.70;;;;;;5063784;28;20448;-76
2023/02/28 14:28:17;;;;;;;4.20;3.80;;;9.20;62.10;;;;;;5059734;28;20182;-75
2023/02/28 14:31:01;;;;;;;4.20;3.90;;;9.10;62.70;;;;;;5064804;28;20515;-77
2023/02/28 14:33:34;;;;;;;4.07;3.70;;;9.10;62.00;;;;;;5063177;28;20469;-76
2023/02/28 14:36:38;;;;;;;4.10;3.73;;;9.20;62.00;;;;;;5068693;28;20429;-76
2023/02/28 14:39:16;;;;;;;6.97;5.03;;;9.10;62.30;;;;;;5058055;28;20440;-77
2023/02/28 14:41:43;;;;;;;5.20;4.40;;;9.20;62.10;;;;;;5064111;28;20433;-76
2023/02/28 14:44:25;;;;;;;5.50;4.47;;;9.10;61.90;;;;;;5062470;28;20433;-77
2023/02/28 14:46:56;;;;;;;4.40;3.83;;;9.20;62.80;;;;;;5066335;28;20547;-76
2023/02/28 14:49:21;;;;;;;4.63;4.17;;;9.40;61.40;;;;;;5058182;28;20428;-75
2023/02/28 14:51:50;;;;;;;5.67;4.00;;;9.30;61.80;;;;;;5063552;28;20965;-82
2023/02/28 14:54:23;;;;;;;6.80;4.27;;;9.30;59.30;;;;;;5062036;28;20226;-80
2023/02/28 14:56:49;;;;;;;6.10;4.43;;;9.20;59.00;;;;;;5063579;28;20477;-78
2023/02/28 14:59:26;;;;;;;5.97;4.60;;;8.90;61.70;;;;;;5062055;28;20679;-77
2023/02/28 15:01:52;;;;;;;4.70;3.90;;;8.90;62.10;;;;;;5056895;28;20570;-75
2023/02/28 15:04:27;;;;;;;5.70;4.03;;;9.00;62.40;;;;;;5054769;28;20425;-75
2023/02/28 15:07:13;;;;;;;6.20;4.37;;;9.10;60.00;;;;;;5060725;28;20429;-73
2023/02/28 15:09:39;;;;;;;6.13;3.90;;;9.00;59.00;;;;;;5052877;28;20866;-73
2023/02/28 15:12:05;;;;;;;4.97;4.00;;;8.80;59.80;;;;;;5053494;28;20477;-75
2023/02/28 15:14:31;;;;;;;5.10;3.57;;;8.70;60.90;;;;;;5060167;28;20202;-75
2023/02/28 15:17:01;;;;;;;4.30;3.60;;;8.70;61.60;;;;;;5063853;28;20194;-76